Time;durP1;ratioP1;P1;durP2;ratioP2;P2;SDS_P1;SDS_P2;PMS_P1;PMS_P2;Temp;Humidity;BMP_temperature;BMP_pressure;BME280_temperature;BME280_humidity;BME280_pressure;Samples;Min_cycle;Max_cycle;Signal;HPM_P1;HPM_P2
2022/01/18 00:06:35;;;;;;;13.00;5.20;;;;;;;-3.75;75.33;100267.25;443482;1268;143636;-68
2022/01/18 00:17:00;;;;;;;13.80;4.50;;;;;;;-3.90;76.15;100276.23;438157;1269;142425;-65
2022/01/18 00:27:09;;;;;;;11.30;4.80;;;;;;;-3.99;76.74;100294.14;437237;1269;141293;-65
2022/01/18 00:37:32;;;;;;;12.10;4.10;;;;;;;-4.00;77.31;100294.64;432341;1268;141834;-67
2022/01/18 00:47:38;;;;;;;7.80;4.30;;;;;;;-3.95;77.78;100307.66;430423;1269;142588;-65
2022/01/18 00:57:44;;;;;;;11.40;3.50;;;;;;;-3.86;78.13;100318.33;446036;1268;143192;-66
2022/01/18 01:07:49;;;;;;;9.80;3.30;;;;;;;-3.95;78.44;100338.47;447846;1268;142549;-65
2022/01/18 01:18:18;;;;;;;12.60;4.80;;;;;;;-4.07;78.90;100368.81;447934;1268;142058;-66
2022/01/18 01:49:13;;;;;;;11.20;4.20;;;;;;;-4.04;79.96;100358.23;447175;1269;141599;-66
2022/01/18 01:59:19;;;;;;;12.90;4.10;;;;;;;-4.06;80.47;100357.70;444769;1270;166172;-66
2022/01/18 02:09:25;;;;;;;8.20;3.40;;;;;;;-3.98;80.81;100362.56;447017;1268;141923;-66
2022/01/18 02:29:54;;;;;;;10.10;3.40;;;;;;;-3.93;81.43;100377.65;447903;1269;141546;-65
2022/01/18 02:40:00;;;;;;;11.30;4.40;;;;;;;-3.86;81.96;100385.58;447149;1268;142233;-64
2022/01/18 02:50:08;;;;;;;8.50;3.30;;;;;;;-3.77;82.13;100395.23;447881;1268;142637;-65
2022/01/18 03:00:20;;;;;;;6.20;3.10;;;;;;;-3.75;82.42;100404.48;447930;1268;141943;-66
2022/01/18 03:10:26;;;;;;;10.40;3.80;;;;;;;-3.84;82.47;100404.92;447958;1268;141919;-66
2022/01/18 03:20:32;;;;;;;7.70;3.10;;;;;;;-3.93;82.58;100414.09;447910;1268;141918;-66
2022/01/18 03:30:41;;;;;;;8.50;3.30;;;;;;;-3.99;82.77;100419.50;442243;1268;142233;-64
2022/01/18 03:40:47;;;;;;;6.30;3.40;;;;;;;-4.02;83.10;100431.45;438513;1268;141410;-65
2022/01/18 03:50:53;;;;;;;6.50;2.70;;;;;;;-4.06;83.31;100430.92;446077;1268;142756;-65
2022/01/18 04:00:59;;;;;;;9.10;2.80;;;;;;;-4.09;83.72;100438.41;447178;1268;142109;-65
2022/01/18 04:11:03;;;;;;;;;;;;;;;-4.12;83.75;100449.31;445058;1268;144005;-65
2022/01/18 04:31:32;;;;;;;8.40;3.10;;;;;;;-3.81;84.66;100463.11;443048;1268;143402;-65
2022/01/18 04:41:38;;;;;;;8.10;4.40;;;;;;;-3.48;84.60;100465.96;447932;1268;142221;-65
2022/01/18 04:51:46;;;;;;;9.90;4.50;;;;;;;-3.27;84.30;100475.88;435022;1268;141892;-64
2022/01/18 05:01:52;;;;;;;7.00;3.30;;;;;;;-3.11;84.31;100488.48;447901;1268;142826;-64
2022/01/18 05:12:05;;;;;;;8.90;3.50;;;;;;;-3.02;84.22;100495.05;447934;1268;141918;-65
2022/01/18 05:32:35;;;;;;;7.90;3.70;;;;;;;-2.90;84.26;100535.56;439110;1268;142343;-65
2022/01/18 05:42:40;;;;;;;8.70;6.10;;;;;;;-2.76;84.20;100546.45;446045;1268;141970;-66
2022/01/18 05:52:46;;;;;;;8.30;4.30;;;;;;;-2.67;84.15;100552.33;447987;1268;141288;-66
2022/01/18 06:03:02;;;;;;;10.20;4.80;;;;;;;-2.63;83.99;100558.17;447915;1268;141702;-66
2022/01/18 06:13:09;;;;;;;10.50;4.10;;;;;;;-2.62;83.91;100565.04;436310;1269;143767;-64
2022/01/18 06:23:15;;;;;;;6.50;3.30;;;;;;;-2.60;83.94;100577.73;430584;1271;141396;-63
2022/01/18 06:33:21;;;;;;;7.80;3.10;;;;;;;-2.58;84.01;100597.81;445394;1268;141738;-64
2022/01/18 06:43:27;;;;;;;11.50;5.50;;;;;;;-2.44;84.19;100618.48;447876;1268;142176;-66
2022/01/18 06:53:35;;;;;;;9.50;6.10;;;;;;;-2.36;83.82;100638.77;447891;1268;142297;-66
2022/01/18 07:03:42;;;;;;;13.30;4.70;;;;;;;-2.34;83.97;100648.71;444354;1267;142171;-65
2022/01/18 07:13:48;;;;;;;9.60;5.20;;;;;;;-2.23;83.91;100673.14;443522;1268;142647;-65
2022/01/18 07:24:03;;;;;;;8.90;5.60;;;;;;;-2.17;83.75;100678.49;434980;1268;141697;-62
2022/01/18 07:34:09;;;;;;;16.00;5.30;;;;;;;-2.08;83.82;100692.79;438946;1268;142831;-65
2022/01/18 07:44:15;;;;;;;9.40;5.20;;;;;;;-1.89;83.66;100705.77;439232;1268;142214;-64
2022/01/18 07:54:21;;;;;;;11.30;5.90;;;;;;;-1.87;83.57;100722.09;438478;1268;143044;-70
2022/01/18 08:04:27;;;;;;;10.70;6.80;;;;;;;-1.58;83.77;100742.13;432344;1268;142150;-64
2022/01/18 08:14:33;;;;;;;11.20;5.20;;;;;;;-1.09;83.12;100767.91;444507;1268;142014;-64
2022/01/18 08:24:39;;;;;;;10.20;5.00;;;;;;;-0.88;82.64;100777.77;437752;1268;141443;-70
2022/01/18 08:34:46;;;;;;;10.00;5.20;;;;;;;-0.69;82.51;100785.38;433324;1270;142310;-68
2022/01/18 08:44:52;;;;;;;11.70;6.10;;;;;;;-0.43;82.14;100812.58;436136;1268;141623;-70
2022/01/18 08:54:57;;;;;;;11.50;6.60;;;;;;;0.09;81.82;100826.69;446920;1268;142163;-65
2022/01/18 09:05:03;;;;;;;9.50;4.90;;;;;;;0.07;80.78;100835.30;447615;1268;141851;-64
2022/01/18 09:15:12;;;;;;;9.10;5.90;;;;;;;-0.08;80.67;100852.88;447831;1268;142107;-59
2022/01/18 09:25:19;;;;;;;10.30;4.70;;;;;;;0.02;80.75;100871.99;437534;1268;142048;-64
2022/01/18 09:35:26;;;;;;;8.00;5.50;;;;;;;-0.01;80.45;100882.48;445757;1267;141298;-64
2022/01/18 09:45:32;;;;;;;9.50;5.10;;;;;;;0.15;80.52;100885.94;431238;1268;141478;-65
2022/01/18 09:55:40;;;;;;;8.70;5.00;;;;;;;0.16;80.18;100888.00;447566;1268;140966;-63
2022/01/18 10:05:50;;;;;;;8.80;5.30;;;;;;;0.30;80.05;100899.54;447694;1268;142851;-61
2022/01/18 10:16:08;;;;;;;8.20;5.10;;;;;;;0.61;80.06;100900.19;429983;1268;142631;-60
2022/01/18 10:26:21;;;;;;;10.80;5.60;;;;;;;0.69;79.37;100911.20;447712;1268;143743;-63
2022/01/18 10:36:27;;;;;;;10.60;4.50;;;;;;;0.61;79.40;100925.17;446771;1268;141365;-64
2022/01/18 10:46:37;;;;;;;10.80;5.40;;;;;;;0.59;79.02;100936.90;447812;1268;141742;-65
2022/01/18 10:56:44;;;;;;;7.80;4.40;;;;;;;0.69;79.05;100953.09;447842;1267;142010;-65
2022/01/18 11:07:01;;;;;;;10.70;4.40;;;;;;;0.82;78.98;100960.31;446666;1269;141687;-65
2022/01/18 11:17:10;;;;;;;10.50;5.80;;;;;;;0.92;78.68;100966.67;447941;1268;142811;-65
2022/01/18 11:27:18;;;;;;;7.70;4.40;;;;;;;0.93;78.39;100960.30;446701;1268;142056;-63
2022/01/18 11:37:35;;;;;;;10.60;4.60;;;;;;;0.93;78.16;100956.32;444336;1268;141826;-63
2022/01/18 11:47:41;;;;;;;5.70;5.10;;;;;;;1.05;78.03;100956.30;432437;1268;141276;-63
2022/01/18 11:57:50;;;;;;;9.40;4.80;;;;;;;0.87;77.66;100960.30;444602;1268;142492;-64
2022/01/18 12:08:01;;;;;;;12.10;4.50;;;;;;;1.05;77.83;100954.58;431721;1268;141734;-62
2022/01/18 12:18:16;;;;;;;12.30;5.10;;;;;;;1.08;77.74;100955.77;437629;1268;142590;-67
2022/01/18 12:28:51;;;;;;;11.00;5.80;;;;;;;0.99;77.70;100965.27;442963;1268;142710;-59
2022/01/18 12:39:01;;;;;;;14.00;6.20;;;;;;;0.83;77.48;100961.69;447838;1268;142305;-64
2022/01/18 12:49:12;;;;;;;9.40;4.70;;;;;;;0.73;77.58;100963.25;446989;1267;142231;-66
2022/01/18 12:59:58;;;;;;;13.30;5.60;;;;;;;0.77;77.78;100983.25;447888;1268;142852;-63
2022/01/18 13:10:07;;;;;;;9.00;5.00;;;;;;;0.57;77.55;101003.25;441927;1266;144226;-63
2022/01/18 13:30:42;;;;;;;12.20;6.50;;;;;;;0.63;77.87;100997.91;445585;1268;142324;-59
2022/01/18 13:40:48;;;;;;;11.50;6.10;;;;;;;0.49;77.92;101007.55;447411;1268;142851;-59
2022/01/18 13:50:57;;;;;;;11.30;7.00;;;;;;;0.49;78.22;101006.87;447896;1268;142346;-69
2022/01/18 14:01:13;;;;;;;12.60;7.40;;;;;;;0.51;78.37;101028.92;430118;1270;155394;-71
2022/01/18 14:11:21;;;;;;;13.80;8.10;;;;;;;0.32;78.34;101063.02;447847;1268;142309;-67
2022/01/18 14:21:32;;;;;;;15.00;9.30;;;;;;;0.21;78.65;101072.30;447050;1269;142825;-66
2022/01/18 14:31:38;;;;;;;9.50;7.00;;;;;;;0.13;78.78;101080.20;447774;1269;142374;-65
2022/01/18 14:41:47;;;;;;;13.00;8.20;;;;;;;0.06;78.93;101086.36;443307;1268;141499;-65
2022/01/18 14:51:53;;;;;;;15.10;8.10;;;;;;;-0.02;79.03;101086.86;441287;1268;142999;-65
2022/01/18 15:01:59;;;;;;;14.00;7.70;;;;;;;-0.11;79.30;101096.46;447591;1268;144366;-64
2022/01/18 15:12:07;;;;;;;14.60;7.60;;;;;;;-0.19;79.31;101099.87;441499;1268;141288;-66
2022/01/18 15:22:13;;;;;;;16.70;10.60;;;;;;;-0.24;79.32;101095.70;447022;1268;142085;-59
2022/01/18 15:32:20;;;;;;;17.70;9.80;;;;;;;-0.36;79.66;101099.78;447718;1268;142438;-60
2022/01/18 15:42:26;;;;;;;28.00;12.90;;;;;;;-0.46;80.01;101114.87;446967;1268;142196;-60
2022/01/18 15:52:32;;;;;;;21.30;12.20;;;;;;;-0.57;79.93;101115.48;447739;1268;143026;-60
2022/01/18 16:02:37;;;;;;;19.30;11.50;;;;;;;-0.64;80.04;101129.37;447749;1268;142899;-59
2022/01/18 16:12:43;;;;;;;22.10;12.60;;;;;;;-0.61;80.43;101135.06;436904;1268;142468;-61
2022/01/18 16:22:49;;;;;;;22.10;13.20;;;;;;;-0.67;80.33;101136.23;447726;1266;142115;-60
2022/01/18 16:32:59;;;;;;;23.00;12.00;;;;;;;-0.83;80.07;101139.55;447554;1268;143080;-59
2022/01/18 16:43:06;;;;;;;22.60;12.20;;;;;;;-1.00;80.44;101139.08;442745;1269;143154;-59
2022/01/18 16:53:13;;;;;;;16.20;10.50;;;;;;;-1.09;80.57;101140.36;442457;1269;142045;-60
2022/01/18 17:03:19;;;;;;;20.70;11.90;;;;;;;-1.13;80.43;101145.83;431704;1270;143243;-59
2022/01/18 17:13:25;;;;;;;21.20;14.40;;;;;;;-1.15;80.69;101160.94;437329;1268;210920;-60
2022/01/18 17:23:31;;;;;;;27.40;15.60;;;;;;;-1.14;80.50;101165.58;447819;1269;142076;-61
2022/01/18 17:33:37;;;;;;;20.50;13.90;;;;;;;-1.16;80.57;101166.07;432919;1269;143886;-61
2022/01/18 17:43:44;;;;;;;19.40;13.40;;;;;;;-1.15;80.40;101164.89;443392;1269;143048;-60
2022/01/18 17:53:50;;;;;;;28.80;15.60;;;;;;;-1.20;80.40;101161.40;447932;1268;144124;-59
2022/01/18 18:03:56;;;;;;;24.30;15.80;;;;;;;-1.27;80.40;101159.61;437731;1270;142281;-60
2022/01/18 18:14:02;;;;;;;21.20;13.40;;;;;;;-1.27;80.11;101158.40;446326;1268;142725;-60
2022/01/18 18:24:11;;;;;;;25.30;15.30;;;;;;;-1.38;80.17;101165.35;435882;1268;141999;-60
2022/01/18 18:34:17;;;;;;;25.70;16.30;;;;;;;-1.58;80.12;101165.64;447121;1268;142537;-60
2022/01/18 18:44:23;;;;;;;24.40;16.60;;;;;;;-1.65;80.49;101143.24;447608;1268;142608;-63
2022/01/18 18:54:29;;;;;;;25.30;15.40;;;;;;;-1.66;80.71;101131.71;445564;1267;143468;-61
2022/01/18 19:04:35;;;;;;;27.20;15.20;;;;;;;-1.64;80.87;101138.61;446445;1268;143522;-61
2022/01/18 19:14:41;;;;;;;26.90;15.60;;;;;;;-1.64;81.33;101147.54;447897;1268;143937;-63
2022/01/18 19:24:47;;;;;;;30.40;17.70;;;;;;;-1.56;81.43;101136.96;447128;1268;143112;-62
2022/01/18 19:34:52;;;;;;;31.00;18.20;;;;;;;-1.41;81.27;101148.65;447925;1268;143888;-63
2022/01/18 19:44:58;;;;;;;30.60;17.60;;;;;;;-1.28;81.47;101155.98;445330;1269;142003;-62
2022/01/18 19:55:06;;;;;;;33.20;19.10;;;;;;;-1.20;81.69;101150.58;447076;1268;142963;-62
2022/01/18 20:05:13;;;;;;;28.70;19.00;;;;;;;-1.23;81.41;101148.65;447974;1268;142224;-62
2022/01/18 20:15:22;;;;;;;33.10;19.50;;;;;;;-1.18;81.81;101168.64;435066;1268;142007;-61
2022/01/18 20:25:29;;;;;;;36.00;21.00;;;;;;;-1.20;81.53;101159.52;432349;1271;141394;-61
2022/01/18 20:35:35;;;;;;;35.30;19.80;;;;;;;-1.37;81.28;101125.50;447928;1268;141640;-62
2022/01/18 20:45:42;;;;;;;38.40;19.60;;;;;;;-1.50;81.53;101113.86;447040;1270;142684;-63
2022/01/18 20:55:47;;;;;;;;;;;;;;;-1.53;81.68;101107.64;448037;1268;142502;-63
2022/01/18 21:05:53;;;;;;;33.60;18.40;;;;;;;-1.61;81.62;101125.59;448011;1268;129043;-63
2022/01/18 21:15:59;;;;;;;32.90;21.00;;;;;;;-1.77;81.93;101111.34;447097;1268;142398;-62
2022/01/18 21:26:05;;;;;;;34.20;20.20;;;;;;;-1.71;82.01;101117.24;447887;1269;142532;-63
2022/01/18 21:36:11;;;;;;;29.30;13.90;;;;;;;-1.78;82.03;101108.91;445448;1268;142651;-63
2022/01/18 21:46:17;;;;;;;25.70;16.40;;;;;;;-1.81;82.31;101094.82;438442;1268;142854;-61
2022/01/18 21:56:23;;;;;;;37.20;17.90;;;;;;;-1.69;82.64;101084.81;436114;1270;146186;-61
2022/01/18 22:06:30;;;;;;;28.10;15.70;;;;;;;-1.68;82.74;101073.31;446982;1269;142584;-62
2022/01/18 22:16:36;;;;;;;24.60;13.40;;;;;;;-1.57;82.99;101065.86;439509;1270;142697;-63
2022/01/18 22:26:42;;;;;;;26.70;14.00;;;;;;;-1.49;83.27;101058.73;448015;1268;145139;-63
2022/01/18 22:36:48;;;;;;;32.30;16.90;;;;;;;-1.38;83.39;101051.44;441226;1268;141787;-63
2022/01/18 22:46:54;;;;;;;32.00;14.80;;;;;;;-1.34;83.50;101042.70;448019;1268;145938;-61
2022/01/18 22:57:00;;;;;;;31.80;14.30;;;;;;;-1.35;83.79;101044.58;447925;1268;141773;-63
2022/01/18 23:07:06;;;;;;;31.40;15.70;;;;;;;-1.24;84.27;101037.13;446016;1268;142039;-62
2022/01/18 23:17:11;;;;;;;;;;;;;;;-1.16;84.35;101038.21;447316;1270;141911;-65
2022/01/18 23:27:17;;;;;;;33.60;17.90;;;;;;;-1.16;84.30;101030.14;433237;1270;129068;-63
2022/01/18 23:37:23;;;;;;;35.50;17.90;;;;;;;-1.24;84.41;101012.04;447707;1269;143974;-63
2022/01/18 23:47:29;;;;;;;40.90;17.60;;;;;;;-1.31;84.48;100991.02;447668;1269;142382;-64
2022/01/18 23:57:34;;;;;;;37.50;17.20;;;;;;;-1.40;84.73;100989.23;446905;1269;143577;-62
